Maljamar, New Mexico
Current Conditions -  °F | °C
As of 4:55 AM on Wednesday 26 Nov 2014 (Local Time) from KHOB Reporting Station
Clear Clear  
Wind Chill: 35°   Ceiling: Unl
Heat Index: 41°   Visibility: 10mi
Dew Point: 10°   Wind: 9mph
Humidity: 29%   Direction: 280°W
Pressure: 30.17"   Gusts: NA
Location:  32.86°N, 103.77°W
Report Text: KHOB 261155Z AUTO 28008KT 10SM CLR 05/M12 A3017 RMK AO2
Loading
Personal Weather Stations






























Interactive Weather Map New forecast layout! Learn more

10-Day Weather Forecast

Advertisements
Track Severe Weather on mobile